Time;durP1;ratioP1;P1;durP2;ratioP2;P2;SDS_P1;SDS_P2;PMS_P1;PMS_P2;Temp;Humidity;BMP_temperature;BMP_pressure;BME280_temperature;BME280_humidity;BME280_pressure;Samples;Min_cycle;Max_cycle;Signal;HPM_P1;HPM_P2
2022/06/11 00:00:15;;;;;;;;;;;;;;;;;;5126090;28;19924;-68
2022/06/11 00:02:41;;;;;;;;;;;;;;;;;;5126671;28;19932;-67
2022/06/11 00:05:07;;;;;;;;;;;;;;;;;;5126616;28;19923;-67
2022/06/11 00:07:34;;;;;;;;;;;;;;;;;;5125328;28;19924;-67
2022/06/11 00:10:00;;;;;;;;;;;;;;;;;;5126162;28;19989;-68
2022/06/11 00:12:28;;;;;;;;;;;;;;;;;;5124841;28;20386;-67
2022/06/11 00:14:54;;;;;;;;;;;;;;;;;;5126314;28;19985;-67
2022/06/11 00:17:20;;;;;;;;;;;;;;;;;;5124455;28;19924;-67
2022/06/11 00:19:46;;;;;;;;;;;;;;;;;;5126503;28;19977;-68
2022/06/11 00:22:12;;;;;;;;;;;;;;;;;;5125997;28;19924;-67
2022/06/11 00:24:38;;;;;;;;;;;;;;;;;;5128880;27;19938;-67
2022/06/11 00:27:04;;;;;;;;;;;;;;;;;;5133031;27;19995;-67
2022/06/11 00:29:30;;;;;;;;;;;;;;;;;;5125868;28;19928;-67
2022/06/11 00:31:56;;;;;;;;;;;;;;;;;;5123590;28;19979;-67
2022/06/11 00:34:22;;;;;;;;;;;;;;;;;;5125785;28;19928;-69
2022/06/11 00:36:48;;;;;;;;;;;;;;;;;;5125753;28;19931;-67
2022/06/11 00:39:14;;;;;;;;;;;;;;;;;;5126323;28;19931;-67
2022/06/11 00:41:41;;;;;;;;;;;;;;;;;;5124072;28;19928;-68
2022/06/11 00:44:07;;;;;;;;;;;;;;;;;;5126007;28;20352;-68
2022/06/11 00:46:33;;;;;;;;;;;;;;;;;;5124925;28;19995;-68
2022/06/11 00:48:59;;;;;;;;;;;;;;;;;;5111680;28;19965;-67
2022/06/11 00:51:25;;;;;;;;;;;;;;;;;;5125458;28;19930;-67
2022/06/11 00:53:51;;;;;;;;;;;;;;;;;;5127494;27;20374;-69
2022/06/11 00:56:17;;;;;;;;;;;;;;;;;;5134801;27;19953;-67
2022/06/11 00:58:45;;;;;;;;;;;;;;;;;;5125988;28;19924;-67
2022/06/11 01:01:13;;;;;;;;;;;;;;;;;;5123874;28;19924;-68
2022/06/11 01:03:39;;;;;;;;;;;;;;;;;;5125651;28;19943;-67
2022/06/11 01:06:06;;;;;;;;;;;;;;;;;;5125083;28;20012;-68
2022/06/11 01:08:32;;;;;;;;;;;;;;;;;;5124987;28;19939;-68
2022/06/11 01:10:58;;;;;;;;;;;;;;;;;;5158762;27;19923;-68
2022/06/11 01:13:30;;;;;;;;;;;;;;;;;;5123861;28;19924;-67
2022/06/11 01:15:56;;;;;;;;;;;;;;;;;;5125768;28;19924;-67
2022/06/11 01:18:22;;;;;;;;;;;;;;;;;;5125336;28;19923;-67
2022/06/11 01:20:48;;;;;;;;;;;;;;;;;;5123863;28;19928;-67
2022/06/11 01:23:14;;;;;;;;;;;;;;;;;;5125526;28;19989;-67
2022/06/11 01:25:40;;;;;;;;;;;;;;;;;;5133258;28;19928;-67
2022/06/11 01:28:06;;;;;;;;;;;;;;;;;;5125441;28;19924;-67
2022/06/11 01:30:32;;;;;;;;;;;;;;;;;;5126635;28;19931;-67
2022/06/11 01:32:59;;;;;;;;;;;;;;;;;;5121365;28;20011;-67
2022/06/11 01:35:25;;;;;;;;;;;;;;;;;;5125133;28;19924;-67
2022/06/11 01:37:51;;;;;;;;;;;;;;;;;;5127297;28;20010;-67
2022/06/11 01:40:17;;;;;;;;;;;;;;;;;;5127834;28;19946;-67
2022/06/11 01:42:43;;;;;;;;;;;;;;;;;;5129416;28;19930;-67
2022/06/11 01:45:09;;;;;;;;;;;;;;;;;;5129444;28;19931;-67
2022/06/11 01:47:35;;;;;;;;;;;;;;;;;;5125844;28;19934;-68
2022/06/11 01:50:01;;;;;;;;;;;;;;;;;;5129520;28;19935;-67
2022/06/11 01:52:28;;;;;;;;;;;;;;;;;;5127449;28;19924;-67
2022/06/11 01:54:54;;;;;;;;;;;;;;;;;;5135300;27;19991;-67
2022/06/11 01:57:20;;;;;;;;;;;;;;;;;;5129230;28;19923;-67
2022/06/11 01:59:46;;;;;;;;;;;;;;;;;;5127728;28;19931;-67
2022/06/11 02:02:12;;;;;;;;;;;;;;;;;;5128759;28;20036;-67
2022/06/11 02:04:38;;;;;;;;;;;;;;;;;;5129265;28;20311;-67
2022/06/11 02:07:04;;;;;;;;;;;;;;;;;;5129036;28;20924;-66
2022/06/11 02:09:30;;;;;;;;;;;;;;;;;;5129130;28;19923;-67
2022/06/11 02:11:56;;;;;;;;;;;;;;;;;;5127961;28;19928;-67
2022/06/11 02:14:23;;;;;;;;;;;;;;;;;;5127743;28;19930;-67
2022/06/11 02:16:49;;;;;;;;;;;;;;;;;;5128448;28;19955;-67
2022/06/11 02:19:15;;;;;;;;;;;;;;;;;;5128759;28;19919;-66
2022/06/11 02:21:41;;;;;;;;;;;;;;;;;;5127855;28;20074;-66
2022/06/11 02:24:07;;;;;;;;;;;;;;;;;;5133697;27;20022;-67
2022/06/11 02:26:33;;;;;;;;;;;;;;;;;;5135978;27;19930;-67
2022/06/11 02:28:59;;;;;;;;;;;;;;;;;;5128677;28;20010;-67
2022/06/11 02:31:25;;;;;;;;;;;;;;;;;;5126266;28;19927;-67
2022/06/11 02:33:51;;;;;;;;;;;;;;;;;;5128384;28;20276;-66
2022/06/11 02:36:17;;;;;;;;;;;;;;;;;;5127269;28;19924;-66
2022/06/11 02:38:43;;;;;;;;;;;;;;;;;;5128433;28;19931;-66
2022/06/11 02:41:09;;;;;;;;;;;;;;;;;;5127462;28;19924;-66
2022/06/11 02:43:35;;;;;;;;;;;;;;;;;;5126837;28;20196;-66
2022/06/11 02:46:40;;;;;;;;;;;;;;;;;;5126086;28;19988;-66
2022/06/11 02:48:47;;;;;;;;;;;;;;;;;;5127668;27;19968;-66
2022/06/11 02:51:13;;;;;;;;;;;;;;;;;;5126648;28;20011;-66
2022/06/11 02:53:39;;;;;;;;;;;;;;;;;;5130328;27;19983;-66
2022/06/11 02:56:05;;;;;;;;;;;;;;;;;;5128737;27;20006;-66
2022/06/11 02:58:33;;;;;;;;;;;;;;;;;;5127225;27;20299;-67
2022/06/11 03:00:59;;;;;;;;;;;;;;;;;;5128052;28;19931;-66
2022/06/11 03:03:25;;;;;;;;;;;;;;;;;;5126297;28;20314;-67
2022/06/11 03:05:52;;;;;;;;;;;;;;;;;;5126590;28;19928;-67
2022/06/11 03:08:18;;;;;;;;;;;;;;;;;;5127733;28;19924;-67
2022/06/11 03:10:44;;;;;;;;;;;;;;;;;;5127786;28;19923;-67
2022/06/11 03:13:10;;;;;;;;;;;;;;;;;;5126378;28;19972;-67
2022/06/11 03:15:36;;;;;;;;;;;;;;;;;;5123739;28;19931;-67
2022/06/11 03:18:02;;;;;;;;;;;;;;;;;;5127505;28;19924;-68
2022/06/11 03:20:28;;;;;;;;;;;;;;;;;;5127601;28;19931;-67
2022/06/11 03:22:54;;;;;;;;;;;;;;;;;;5125525;28;20026;-68
2022/06/11 03:25:20;;;;;;;;;;;;;;;;;;5137066;27;19946;-68
2022/06/11 03:27:46;;;;;;;;;;;;;;;;;;5127294;28;19931;-67
2022/06/11 03:30:12;;;;;;;;;;;;;;;;;;5130383;27;19930;-67
2022/06/11 03:32:38;;;;;;;;;;;;;;;;;;5127253;28;20002;-67
2022/06/11 03:35:04;;;;;;;;;;;;;;;;;;5122856;28;19944;-67
2022/06/11 03:37:30;;;;;;;;;;;;;;;;;;5127103;28;20389;-66
2022/06/11 03:39:56;;;;;;;;;;;;;;;;;;5127415;28;19924;-67
2022/06/11 03:42:22;;;;;;;;;;;;;;;;;;5125740;28;19919;-67
2022/06/11 03:44:47;;;;;;;;;;;;;;;;;;5125922;28;19924;-66
2022/06/11 03:47:13;;;;;;;;;;;;;;;;;;5126902;28;19924;-66
2022/06/11 03:49:39;;;;;;;;;;;;;;;;;;5124750;28;19926;-66
2022/06/11 03:52:06;;;;;;;;;;;;;;;;;;5126745;28;19928;-66
2022/06/11 03:54:32;;;;;;;;;;;;;;;;;;5134494;27;19959;-67
2022/06/11 03:56:57;;;;;;;;;;;;;;;;;;5122447;28;19931;-66
2022/06/11 03:59:23;;;;;;;;;;;;;;;;;;5125230;28;20072;-67
2022/06/11 04:01:49;;;;;;;;;;;;;;;;;;5126584;28;19942;-67
2022/06/11 04:04:15;;;;;;;;;;;;;;;;;;5125924;28;19923;-67
2022/06/11 04:06:41;;;;;;;;;;;;;;;;;;5125775;28;19928;-67
2022/06/11 04:09:08;;;;;;;;;;;;;;;;;;5126416;28;19920;-67
2022/06/11 04:11:34;;;;;;;;;;;;;;;;;;5126459;28;19930;-68
2022/06/11 04:13:59;;;;;;;;;;;;;;;;;;5126485;28;20405;-68
2022/06/11 04:16:26;;;;;;;;;;;;;;;;;;5124681;28;19924;-68
2022/06/11 04:18:52;;;;;;;;;;;;;;;;;;5125465;28;19977;-67
2022/06/11 04:21:20;;;;;;;;;;;;;;;;;;5126270;28;19931;-67
2022/06/11 04:23:46;;;;;;;;;;;;;;;;;;5132346;27;19923;-67
2022/06/11 04:26:12;;;;;;;;;;;;;;;;;;5130784;27;19924;-67
2022/06/11 04:28:38;;;;;;;;;;;;;;;;;;5126129;28;19927;-67
2022/06/11 04:31:04;;;;;;;;;;;;;;;;;;5124234;28;19923;-67
2022/06/11 04:33:30;;;;;;;;;;;;;;;;;;5125876;28;20352;-67
2022/06/11 04:35:56;;;;;;;;;;;;;;;;;;5126055;28;19924;-67
2022/06/11 04:38:22;;;;;;;;;;;;;;;;;;5125869;28;19931;-67
2022/06/11 04:40:48;;;;;;;;;;;;;;;;;;5123909;28;19924;-67
2022/06/11 04:43:14;;;;;;;;;;;;;;;;;;5126048;28;19926;-66
2022/06/11 04:45:40;;;;;;;;;;;;;;;;;;5125924;28;19969;-66
2022/06/11 04:48:06;;;;;;;;;;;;;;;;;;5126086;28;19923;-67
2022/06/11 04:50:32;;;;;;;;;;;;;;;;;;5125144;28;19923;-66
2022/06/11 04:52:58;;;;;;;;;;;;;;;;;;5126633;28;20276;-66
2022/06/11 04:55:24;;;;;;;;;;;;;;;;;;5134348;27;19931;-65
2022/06/11 04:57:50;;;;;;;;;;;;;;;;;;5125954;28;19967;-66
2022/06/11 05:00:16;;;;;;;;;;;;;;;;;;5124974;28;19963;-67
2022/06/11 05:02:42;;;;;;;;;;;;;;;;;;5125696;28;20022;-67
2022/06/11 05:05:08;;;;;;;;;;;;;;;;;;5125702;28;19924;-67
2022/06/11 05:07:34;;;;;;;;;;;;;;;;;;5125612;28;19928;-67
2022/06/11 05:10:00;;;;;;;;;;;;;;;;;;5122768;28;20446;-67
2022/06/11 05:12:26;;;;;;;;;;;;;;;;;;5125657;28;19924;-67
2022/06/11 05:14:52;;;;;;;;;;;;;;;;;;5125630;28;19928;-66
2022/06/11 05:17:18;;;;;;;;;;;;;;;;;;5125630;28;19934;-66
2022/06/11 05:19:44;;;;;;;;;;;;;;;;;;5123148;28;20030;-66
2022/06/11 05:22:10;;;;;;;;;;;;;;;;;;5125406;28;19924;-65
2022/06/11 05:24:36;;;;;;;;;;;;;;;;;;5125668;28;19924;-68
2022/06/11 05:27:03;;;;;;;;;;;;;;;;;;5125446;28;19923;-67
2022/06/11 05:29:29;;;;;;;;;;;;;;;;;;5120118;28;20337;-67
2022/06/11 05:31:55;;;;;;;;;;;;;;;;;;5123538;28;19927;-68
2022/06/11 05:34:21;;;;;;;;;;;;;;;;;;5125209;28;20511;-68
2022/06/11 05:36:47;;;;;;;;;;;;;;;;;;5125264;28;19924;-67
2022/06/11 05:39:13;;;;;;;;;;;;;;;;;;5123787;28;19924;-68
2022/06/11 05:41:39;;;;;;;;;;;;;;;;;;5124757;28;19930;-69
2022/06/11 05:44:05;;;;;;;;;;;;;;;;;;5125277;28;19983;-69
2022/06/11 05:46:32;;;;;;;;;;;;;;;;;;5125112;28;19953;-69
2022/06/11 05:48:58;;;;;;;;;;;;;;;;;;5124591;28;19994;-68
2022/06/11 05:51:24;;;;;;;;;;;;;;;;;;5125289;28;19924;-69
2022/06/11 05:53:50;;;;;;;;;;;;;;;;;;5124374;28;19946;-68
2022/06/11 05:56:16;;;;;;;;;;;;;;;;;;5124935;28;19924;-68
2022/06/11 05:58:42;;;;;;;;;;;;;;;;;;5124644;28;19946;-70
2022/06/11 06:01:08;;;;;;;;;;;;;;;;;;5115849;28;19923;-68
2022/06/11 06:03:34;;;;;;;;;;;;;;;;;;5122446;28;19977;-68
2022/06/11 06:06:00;;;;;;;;;;;;;;;;;;5121380;28;19927;-70
2022/06/11 06:08:26;;;;;;;;;;;;;;;;;;5114818;28;19950;-68
2022/06/11 06:10:52;;;;;;;;;;;;;;;;;;5125287;28;19924;-68
2022/06/11 06:16:03;;;;;;;;;;;;;;;;;;5124482;28;19931;-68
2022/06/11 06:18:29;;;;;;;;;;;;;;;;;;5122471;28;19919;-68
2022/06/11 06:20:55;;;;;;;;;;;;;;;;;;5123549;28;19984;-68
2022/06/11 06:23:21;;;;;;;;;;;;;;;;;;5127202;27;19988;-68
2022/06/11 06:25:49;;;;;;;;;;;;;;;;;;5135380;27;20336;-69
2022/06/11 06:28:15;;;;;;;;;;;;;;;;;;5132740;27;20059;-69
2022/06/11 06:30:41;;;;;;;;;;;;;;;;;;5128628;28;19932;-68
2022/06/11 06:33:07;;;;;;;;;;;;;;;;;;5128338;28;20039;-69
2022/06/11 06:35:33;;;;;;;;;;;;;;;;;;5125322;28;19935;-69
2022/06/11 06:37:59;;;;;;;;;;;;;;;;;;5128265;28;19945;-68
2022/06/11 06:40:25;;;;;;;;;;;;;;;;;;5126128;28;19928;-69
2022/06/11 06:42:51;;;;;;;;;;;;;;;;;;5126039;28;19928;-69
2022/06/11 06:45:17;;;;;;;;;;;;;;;;;;5127030;27;19928;-69
2022/06/11 06:47:43;;;;;;;;;;;;;;;;;;5120043;28;19924;-69
2022/06/11 06:50:09;;;;;;;;;;;;;;;;;;5129113;28;19924;-69
2022/06/11 06:52:35;;;;;;;;;;;;;;;;;;5125876;27;20069;-68
2022/06/11 06:55:01;;;;;;;;;;;;;;;;;;5119396;28;19935;-68
2022/06/11 06:57:27;;;;;;;;;;;;;;;;;;5128786;27;19924;-68
2022/06/11 06:59:53;;;;;;;;;;;;;;;;;;5127836;28;19924;-68
2022/06/11 07:02:19;;;;;;;;;;;;;;;;;;5126117;28;20002;-68
2022/06/11 07:04:45;;;;;;;;;;;;;;;;;;5118008;28;20400;-68
2022/06/11 07:07:11;;;;;;;;;;;;;;;;;;5126248;27;19983;-68
2022/06/11 07:09:37;;;;;;;;;;;;;;;;;;5131568;27;19923;-68
2022/06/11 07:12:03;;;;;;;;;;;;;;;;;;5127261;27;20015;-68
2022/06/11 07:14:29;;;;;;;;;;;;;;;;;;5124057;28;19970;-68
2022/06/11 07:16:55;;;;;;;;;;;;;;;;;;5134552;27;20302;-69
2022/06/11 07:19:22;;;;;;;;;;;;;;;;;;5124225;28;19928;-68
2022/06/11 07:21:48;;;;;;;;;;;;;;;;;;5126169;28;19945;-68
2022/06/11 07:24:14;;;;;;;;;;;;;;;;;;5117908;28;20387;-69
2022/06/11 07:26:40;;;;;;;;;;;;;;;;;;5127239;28;19932;-68
2022/06/11 07:29:06;;;;;;;;;;;;;;;;;;5127408;28;19928;-69
2022/06/11 07:31:32;;;;;;;;;;;;;;;;;;5127101;27;19999;-68
2022/06/11 07:33:58;;;;;;;;;;;;;;;;;;5126622;28;19927;-68
2022/06/11 07:36:24;;;;;;;;;;;;;;;;;;5127253;27;19924;-69
2022/06/11 07:38:50;;;;;;;;;;;;;;;;;;5126928;28;19985;-69
2022/06/11 07:41:16;;;;;;;;;;;;;;;;;;5126325;28;19924;-68
2022/06/11 07:43:42;;;;;;;;;;;;;;;;;;5123264;28;19920;-69
2022/06/11 07:46:08;;;;;;;;;;;;;;;;;;5122975;27;19928;-68
2022/06/11 07:48:34;;;;;;;;;;;;;;;;;;5150229;27;19924;-68
2022/06/11 07:51:00;;;;;;;;;;;;;;;;;;5125582;28;19920;-68
2022/06/11 07:53:26;;;;;;;;;;;;;;;;;;5124954;28;19924;-68
2022/06/11 07:55:53;;;;;;;;;;;;;;;;;;5124215;28;19923;-68
2022/06/11 07:58:18;;;;;;;;;;;;;;;;;;5151920;27;19932;-68
2022/06/11 08:00:44;;;;;;;;;;;;;;;;;;5124424;28;19935;-68
2022/06/11 08:03:10;;;;;;;;;;;;;;;;;;5124886;27;19938;-68
2022/06/11 08:05:36;;;;;;;;;;;;;;;;;;5125780;28;19924;-67
2022/06/11 08:08:02;;;;;;;;;;;;;;;;;;5125009;28;19924;-67
2022/06/11 08:10:29;;;;;;;;;;;;;;;;;;5125565;28;19924;-67
2022/06/11 08:12:55;;;;;;;;;;;;;;;;;;5125162;28;20323;-67
2022/06/11 08:15:21;;;;;;;;;;;;;;;;;;5117549;27;19949;-68
2022/06/11 08:17:47;;;;;;;;;;;;;;;;;;5127478;27;19924;-67
2022/06/11 08:20:13;;;;;;;;;;;;;;;;;;5125981;28;19945;-67
2022/06/11 08:22:39;;;;;;;;;;;;;;;;;;5125571;28;19931;-67
2022/06/11 08:25:05;;;;;;;;;;;;;;;;;;5129331;27;19927;-68
2022/06/11 08:27:31;;;;;;;;;;;;;;;;;;5124578;28;19924;-68
2022/06/11 08:29:57;;;;;;;;;;;;;;;;;;5126058;28;19926;-67
2022/06/11 08:32:23;;;;;;;;;;;;;;;;;;5128370;27;19971;-67
2022/06/11 08:34:49;;;;;;;;;;;;;;;;;;5125755;28;19924;-67
2022/06/11 08:37:15;;;;;;;;;;;;;;;;;;5124123;28;19931;-67
2022/06/11 08:39:41;;;;;;;;;;;;;;;;;;5125241;28;19928;-69
2022/06/11 08:42:07;;;;;;;;;;;;;;;;;;5123879;28;19928;-68
2022/06/11 08:44:33;;;;;;;;;;;;;;;;;;5123618;28;20463;-67
2022/06/11 08:46:59;;;;;;;;;;;;;;;;;;5124463;28;19930;-68
2022/06/11 08:49:25;;;;;;;;;;;;;;;;;;5124125;27;19924;-68
2022/06/11 08:51:51;;;;;;;;;;;;;;;;;;5125631;28;19934;-68
2022/06/11 08:54:17;;;;;;;;;;;;;;;;;;5124988;28;19923;-68
2022/06/11 08:56:43;;;;;;;;;;;;;;;;;;5124604;27;19961;-67
2022/06/11 08:59:09;;;;;;;;;;;;;;;;;;5157662;27;19931;-67
2022/06/11 09:01:35;;;;;;;;;;;;;;;;;;5124948;28;19923;-68
2022/06/11 09:04:01;;;;;;;;;;;;;;;;;;5125898;28;19939;-67
2022/06/11 09:06:27;;;;;;;;;;;;;;;;;;5125193;28;19930;-68
2022/06/11 09:08:53;;;;;;;;;;;;;;;;;;5125153;28;19919;-68
2022/06/11 09:11:19;;;;;;;;;;;;;;;;;;5124977;28;19934;-68
2022/06/11 09:13:45;;;;;;;;;;;;;;;;;;5125304;28;19982;-68
2022/06/11 09:16:11;;;;;;;;;;;;;;;;;;5127474;28;19927;-67
2022/06/11 09:18:37;;;;;;;;;;;;;;;;;;5124557;28;19938;-66
2022/06/11 09:21:03;;;;;;;;;;;;;;;;;;5116551;28;19924;-66
2022/06/11 09:23:30;;;;;;;;;;;;;;;;;;5115950;28;19935;-74
2022/06/11 09:25:56;;;;;;;;;;;;;;;;;;5117249;27;19932;-69
2022/06/11 09:28:22;;;;;;;;;;;;;;;;;;5124485;28;19927;-71
2022/06/11 09:30:49;;;;;;;;;;;;;;;;;;5117802;28;19927;-71
2022/06/11 09:33:15;;;;;;;;;;;;;;;;;;5121050;28;19931;-70
2022/06/11 09:35:41;;;;;;;;;;;;;;;;;;5117379;28;19928;-72
2022/06/11 09:38:07;;;;;;;;;;;;;;;;;;5116282;28;19923;-73
2022/06/11 09:40:33;;;;;;;;;;;;;;;;;;5132819;28;19924;-73
2022/06/11 09:42:59;;;;;;;;;;;;;;;;;;5118492;28;20441;-71
2022/06/11 09:45:25;;;;;;;;;;;;;;;;;;5127888;27;19924;-70
2022/06/11 09:47:51;;;;;;;;;;;;;;;;;;5153404;27;19939;-66
2022/06/11 09:50:18;;;;;;;;;;;;;;;;;;5124041;28;19938;-72
2022/06/11 09:52:44;;;;;;;;;;;;;;;;;;5155356;27;20285;-70
2022/06/11 09:55:10;;;;;;;;;;;;;;;;;;5133133;28;20007;-68
2022/06/11 09:57:36;;;;;;;;;;;;;;;;;;5132776;27;19932;-67
2022/06/11 10:00:02;;;;;;;;;;;;;;;;;;5119774;27;20039;-67
2022/06/11 10:04:54;;;;;;;;;;;;;;;;;;5123468;27;19924;-68
2022/06/11 10:07:20;;;;;;;;;;;;;;;;;;5132951;27;19924;-69
2022/06/11 10:09:46;;;;;;;;;;;;;;;;;;5154875;27;19970;-67
2022/06/11 10:12:12;;;;;;;;;;;;;;;;;;5119907;27;19931;-71
2022/06/11 10:14:38;;;;;;;;;;;;;;;;;;5152502;27;19927;-70
2022/06/11 10:17:04;;;;;;;;;;;;;;;;;;5123421;27;19927;-70
2022/06/11 10:19:30;;;;;;;;;;;;;;;;;;5120436;27;20396;-71
2022/06/11 10:21:56;;;;;;;;;;;;;;;;;;5122676;27;19940;-78
2022/06/11 10:24:22;;;;;;;;;;;;;;;;;;5134443;27;19923;-73
2022/06/11 10:26:48;;;;;;;;;;;;;;;;;;5125572;27;19943;-68
2022/06/11 10:29:14;;;;;;;;;;;;;;;;;;5127094;27;20402;-68
2022/06/11 10:31:42;;;;;;;;;;;;;;;;;;5141411;27;20283;-68
2022/06/11 10:34:08;;;;;;;;;;;;;;;;;;5131056;27;19924;-68
2022/06/11 10:36:34;;;;;;;;;;;;;;;;;;5123495;27;19930;-68
2022/06/11 10:39:00;;;;;;;;;;;;;;;;;;5117267;28;19923;-64
2022/06/11 10:41:26;;;;;;;;;;;;;;;;;;5114518;27;19923;-64
2022/06/11 10:43:52;;;;;;;;;;;;;;;;;;5116490;27;19924;-64
2022/06/11 10:46:18;;;;;;;;;;;;;;;;;;5119721;27;19924;-66
2022/06/11 10:48:44;;;;;;;;;;;;;;;;;;5113090;27;19923;-65
2022/06/11 10:51:10;;;;;;;;;;;;;;;;;;5119343;27;19939;-69
2022/06/11 10:53:36;;;;;;;;;;;;;;;;;;5124289;27;20413;-68
2022/06/11 10:56:02;;;;;;;;;;;;;;;;;;5120977;28;19923;-67
2022/06/11 10:58:28;;;;;;;;;;;;;;;;;;5124995;28;19943;-67
2022/06/11 11:00:54;;;;;;;;;;;;;;;;;;5125894;28;19919;-67
2022/06/11 11:03:20;;;;;;;;;;;;;;;;;;5127722;28;20391;-68
2022/06/11 11:05:48;;;;;;;;;;;;;;;;;;5127780;28;19928;-67
2022/06/11 11:08:14;;;;;;;;;;;;;;;;;;5126509;28;19967;-67
2022/06/11 11:10:40;;;;;;;;;;;;;;;;;;5127780;27;19969;-67
2022/06/11 11:13:06;;;;;;;;;;;;;;;;;;5127614;28;19923;-67
2022/06/11 11:15:32;;;;;;;;;;;;;;;;;;5126299;28;19931;-67
2022/06/11 11:17:58;;;;;;;;;;;;;;;;;;5127854;28;19931;-67
2022/06/11 11:20:30;;;;;;;;;;;;;;;;;;5127561;28;20371;-67
2022/06/11 11:22:56;;;;;;;;;;;;;;;;;;5131605;27;19992;-67
2022/06/11 11:25:22;;;;;;;;;;;;;;;;;;5140460;27;19930;-67
2022/06/11 11:27:50;;;;;;;;;;;;;;;;;;5127373;28;19962;-67
2022/06/11 11:30:16;;;;;;;;;;;;;;;;;;5121373;28;19935;-67
2022/06/11 11:32:42;;;;;;;;;;;;;;;;;;5118193;28;19924;-67
2022/06/11 11:35:08;;;;;;;;;;;;;;;;;;5126696;27;20327;-67
2022/06/11 11:37:34;;;;;;;;;;;;;;;;;;5126916;28;19931;-67
2022/06/11 11:40:02;;;;;;;;;;;;;;;;;;5127096;28;19927;-67
2022/06/11 11:42:28;;;;;;;;;;;;;;;;;;5127129;28;19930;-67
2022/06/11 11:44:57;;;;;;;;;;;;;;;;;;5126894;28;19924;-67
2022/06/11 11:47:23;;;;;;;;;;;;;;;;;;5127000;28;19924;-67
2022/06/11 11:49:49;;;;;;;;;;;;;;;;;;5126135;28;19931;-67
2022/06/11 11:52:15;;;;;;;;;;;;;;;;;;5130786;27;19923;-67
2022/06/11 11:54:41;;;;;;;;;;;;;;;;;;5126961;28;19924;-68
2022/06/11 11:57:07;;;;;;;;;;;;;;;;;;5126472;28;19974;-66
2022/06/11 11:59:33;;;;;;;;;;;;;;;;;;5126582;28;19924;-66
2022/06/11 12:01:59;;;;;;;;;;;;;;;;;;5126685;28;19930;-66
2022/06/11 12:04:25;;;;;;;;;;;;;;;;;;5124991;28;19949;-67
2022/06/11 12:06:51;;;;;;;;;;;;;;;;;;5126627;28;19927;-66
2022/06/11 12:09:17;;;;;;;;;;;;;;;;;;5126663;28;20407;-67
2022/06/11 12:11:43;;;;;;;;;;;;;;;;;;5126451;28;19963;-67
2022/06/11 12:14:09;;;;;;;;;;;;;;;;;;5126441;28;20059;-67
2022/06/11 12:16:35;;;;;;;;;;;;;;;;;;5126419;28;20212;-66
2022/06/11 12:19:01;;;;;;;;;;;;;;;;;;5126391;28;19920;-66
2022/06/11 12:21:27;;;;;;;;;;;;;;;;;;5125455;28;19930;-66
2022/06/11 12:23:53;;;;;;;;;;;;;;;;;;5136167;27;19923;-67
2022/06/11 12:26:19;;;;;;;;;;;;;;;;;;5126100;28;19947;-67
2022/06/11 12:28:45;;;;;;;;;;;;;;;;;;5126275;28;20296;-67
2022/06/11 12:31:11;;;;;;;;;;;;;;;;;;5126352;28;19955;-67
2022/06/11 12:33:37;;;;;;;;;;;;;;;;;;5125973;28;20415;-67
2022/06/11 12:36:03;;;;;;;;;;;;;;;;;;5124826;28;19924;-67
2022/06/11 12:38:29;;;;;;;;;;;;;;;;;;5125914;28;19928;-67
2022/06/11 12:40:55;;;;;;;;;;;;;;;;;;5126169;28;19924;-67
2022/06/11 12:43:21;;;;;;;;;;;;;;;;;;5125988;28;19995;-67
2022/06/11 12:45:47;;;;;;;;;;;;;;;;;;5125916;28;19924;-67
2022/06/11 12:48:13;;;;;;;;;;;;;;;;;;5126089;28;19931;-67
2022/06/11 12:50:41;;;;;;;;;;;;;;;;;;5125741;28;19924;-67
2022/06/11 12:53:09;;;;;;;;;;;;;;;;;;5135581;27;19969;-67
2022/06/11 12:55:38;;;;;;;;;;;;;;;;;;5125881;28;19923;-66
2022/06/11 12:58:04;;;;;;;;;;;;;;;;;;5125603;28;19934;-66
2022/06/11 13:00:30;;;;;;;;;;;;;;;;;;5125259;28;19924;-66
2022/06/11 13:02:56;;;;;;;;;;;;;;;;;;5125225;27;20430;-67
2022/06/11 13:05:22;;;;;;;;;;;;;;;;;;5125650;28;19924;-66
2022/06/11 13:07:48;;;;;;;;;;;;;;;;;;5128832;27;19959;-66
2022/06/11 13:10:14;;;;;;;;;;;;;;;;;;5125604;28;20451;-66
2022/06/11 13:12:41;;;;;;;;;;;;;;;;;;5125764;28;19995;-67
2022/06/11 13:15:07;;;;;;;;;;;;;;;;;;5124287;28;19924;-66
2022/06/11 13:17:33;;;;;;;;;;;;;;;;;;5121701;28;20000;-67
2022/06/11 13:19:59;;;;;;;;;;;;;;;;;;5124681;28;19924;-67
2022/06/11 13:22:25;;;;;;;;;;;;;;;;;;5123931;27;19923;-65
2022/06/11 13:24:51;;;;;;;;;;;;;;;;;;5122404;28;19930;-65
2022/06/11 13:27:17;;;;;;;;;;;;;;;;;;5123536;28;20207;-66
2022/06/11 13:29:43;;;;;;;;;;;;;;;;;;5122490;28;20383;-65
2022/06/11 13:32:10;;;;;;;;;;;;;;;;;;5115438;27;19928;-66
2022/06/11 13:34:36;;;;;;;;;;;;;;;;;;5122906;27;19924;-65
2022/06/11 13:37:02;;;;;;;;;;;;;;;;;;5118901;27;19946;-66
2022/06/11 13:39:28;;;;;;;;;;;;;;;;;;5119837;27;20042;-65
2022/06/11 13:41:54;;;;;;;;;;;;;;;;;;5117423;28;19924;-65
2022/06/11 13:44:20;;;;;;;;;;;;;;;;;;5115501;28;19923;-65
2022/06/11 13:46:46;;;;;;;;;;;;;;;;;;5128786;27;19971;-64
2022/06/11 13:49:12;;;;;;;;;;;;;;;;;;5116702;28;19969;-64
2022/06/11 13:51:38;;;;;;;;;;;;;;;;;;5125678;27;19924;-64
2022/06/11 13:56:49;;;;;;;;;;;;;;;;;;5139814;27;19931;-65
2022/06/11 13:59:14;;;;;;;;;;;;;;;;;;5132412;27;20379;-64
2022/06/11 14:01:40;;;;;;;;;;;;;;;;;;5125485;28;19923;-64
2022/06/11 14:04:07;;;;;;;;;;;;;;;;;;5117470;28;20258;-64
2022/06/11 14:06:33;;;;;;;;;;;;;;;;;;5137636;27;20070;-65
2022/06/11 14:08:59;;;;;;;;;;;;;;;;;;5136960;27;19927;-65
2022/06/11 14:11:24;;;;;;;;;;;;;;;;;;5121745;27;19923;-62
2022/06/11 14:13:51;;;;;;;;;;;;;;;;;;5126711;27;20011;-63
2022/06/11 14:16:18;;;;;;;;;;;;;;;;;;5127251;27;19967;-63
2022/06/11 14:18:44;;;;;;;;;;;;;;;;;;5126702;27;19988;-66
2022/06/11 14:21:10;;;;;;;;;;;;;;;;;;5162742;27;19934;-64
2022/06/11 14:23:36;;;;;;;;;;;;;;;;;;5135912;27;20377;-67
2022/06/11 14:26:02;;;;;;;;;;;;;;;;;;5131337;27;19928;-66
2022/06/11 14:28:27;;;;;;;;;;;;;;;;;;5120693;27;19956;-66
2022/06/11 14:30:53;;;;;;;;;;;;;;;;;;5125695;28;20332;-64
2022/06/11 14:33:20;;;;;;;;;;;;;;;;;;5138131;27;19924;-66
2022/06/11 14:35:46;;;;;;;;;;;;;;;;;;5123346;27;19931;-66
2022/06/11 14:38:12;;;;;;;;;;;;;;;;;;5120700;27;20314;-64
2022/06/11 14:40:38;;;;;;;;;;;;;;;;;;5114627;27;19920;-65
2022/06/11 14:43:04;;;;;;;;;;;;;;;;;;5131953;27;19924;-62
2022/06/11 14:45:29;;;;;;;;;;;;;;;;;;5122514;27;19940;-65
2022/06/11 14:47:55;;;;;;;;;;;;;;;;;;5116141;28;19926;-65
2022/06/11 14:50:21;;;;;;;;;;;;;;;;;;5124269;27;19927;-63
2022/06/11 14:52:47;;;;;;;;;;;;;;;;;;5135738;27;20018;-65
2022/06/11 14:55:13;;;;;;;;;;;;;;;;;;5114945;28;19924;-65
2022/06/11 14:57:39;;;;;;;;;;;;;;;;;;5118636;27;19983;-65
2022/06/11 15:00:05;;;;;;;;;;;;;;;;;;5121728;27;20379;-64
2022/06/11 15:02:31;;;;;;;;;;;;;;;;;;5118696;27;19928;-65
2022/06/11 15:04:57;;;;;;;;;;;;;;;;;;5118498;28;19988;-65
2022/06/11 15:07:23;;;;;;;;;;;;;;;;;;5113775;28;20998;-65
2022/06/11 15:09:49;;;;;;;;;;;;;;;;;;5121540;27;19956;-65
2022/06/11 15:12:15;;;;;;;;;;;;;;;;;;5155896;27;19923;-64
2022/06/11 15:14:41;;;;;;;;;;;;;;;;;;5116573;27;20419;-65
2022/06/11 15:17:07;;;;;;;;;;;;;;;;;;5115005;27;19923;-65
2022/06/11 15:19:33;;;;;;;;;;;;;;;;;;5116314;27;19924;-65
2022/06/11 15:21:59;;;;;;;;;;;;;;;;;;5122708;27;19946;-65
2022/06/11 15:24:25;;;;;;;;;;;;;;;;;;5122907;27;19924;-66
2022/06/11 15:26:51;;;;;;;;;;;;;;;;;;5126716;28;20015;-65
2022/06/11 15:29:17;;;;;;;;;;;;;;;;;;5125011;28;19932;-65
2022/06/11 15:31:43;;;;;;;;;;;;;;;;;;5125970;28;20006;-65
2022/06/11 15:34:09;;;;;;;;;;;;;;;;;;5121682;27;19924;-65
2022/06/11 15:36:35;;;;;;;;;;;;;;;;;;5127010;28;19983;-65
2022/06/11 15:39:01;;;;;;;;;;;;;;;;;;5121444;28;19958;-65
2022/06/11 15:41:29;;;;;;;;;;;;;;;;;;5127243;28;19924;-65
2022/06/11 15:43:56;;;;;;;;;;;;;;;;;;5123595;28;19946;-66
2022/06/11 15:46:22;;;;;;;;;;;;;;;;;;5122730;28;19973;-66
2022/06/11 15:48:48;;;;;;;;;;;;;;;;;;5126932;28;19963;-66
2022/06/11 15:51:15;;;;;;;;;;;;;;;;;;5126576;27;19923;-66
2022/06/11 15:56:26;;;;;;;;;;;;;;;;;;5127563;27;19985;-66
2022/06/11 15:58:52;;;;;;;;;;;;;;;;;;5124503;27;19936;-65
2022/06/11 16:01:18;;;;;;;;;;;;;;;;;;5123939;27;19924;-65
2022/06/11 16:03:46;;;;;;;;;;;;;;;;;;5119894;27;19920;-65
2022/06/11 16:06:12;;;;;;;;;;;;;;;;;;5121076;28;20010;-65
2022/06/11 16:08:38;;;;;;;;;;;;;;;;;;5122088;28;20302;-65
2022/06/11 16:11:04;;;;;;;;;;;;;;;;;;5120146;28;20027;-65
2022/06/11 16:13:30;;;;;;;;;;;;;;;;;;5124206;28;19924;-65
2022/06/11 16:15:56;;;;;;;;;;;;;;;;;;5125431;28;19924;-65
2022/06/11 16:18:22;;;;;;;;;;;;;;;;;;5124378;28;19927;-65
2022/06/11 16:20:48;;;;;;;;;;;;;;;;;;5123883;28;19942;-65
2022/06/11 16:23:14;;;;;;;;;;;;;;;;;;5123401;28;19931;-65
2022/06/11 16:25:40;;;;;;;;;;;;;;;;;;5125655;28;19930;-65
2022/06/11 16:28:06;;;;;;;;;;;;;;;;;;5123819;28;19932;-65
2022/06/11 16:30:33;;;;;;;;;;;;;;;;;;5126939;27;19945;-65
2022/06/11 16:32:58;;;;;;;;;;;;;;;;;;5118815;28;19924;-65
2022/06/11 16:35:24;;;;;;;;;;;;;;;;;;5127885;27;20370;-65
2022/06/11 16:37:51;;;;;;;;;;;;;;;;;;5124916;28;19953;-65
2022/06/11 16:40:17;;;;;;;;;;;;;;;;;;5123689;27;19971;-66
2022/06/11 16:42:47;;;;;;;;;;;;;;;;;;5146020;27;19919;-65
2022/06/11 16:45:13;;;;;;;;;;;;;;;;;;5126004;28;19988;-65
2022/06/11 16:47:39;;;;;;;;;;;;;;;;;;5124321;28;19935;-65